createdAt,value
2018-11-25T00:00:24.038Z,141.17
2018-11-25T00:02:52.635Z,166.30
2018-11-25T00:05:21.240Z,125.67
2018-11-25T00:07:49.776Z,126.50
2018-11-25T00:10:18.302Z,118.53
2018-11-25T00:12:47.039Z,132.57
2018-11-25T00:15:15.604Z,111.87
2018-11-25T00:17:44.091Z,117.37
2018-11-25T00:20:13.291Z,134.13
2018-11-25T00:22:42.209Z,321.57
2018-11-25T00:25:11.664Z,244.93
2018-11-25T00:27:40.159Z,142.70
2018-11-25T00:30:10.989Z,123.57
2018-11-25T00:32:39.508Z,120.97
2018-11-25T00:35:09.471Z,189.00
2018-11-25T00:37:37.951Z,157.00
2018-11-25T00:40:08.439Z,148.17
2018-11-25T00:42:36.980Z,153.87
2018-11-25T00:45:07.799Z,142.67
2018-11-25T00:47:36.286Z,131.17
2018-11-25T00:50:06.462Z,137.37
2018-11-25T00:52:34.951Z,138.20
2018-11-25T00:55:03.580Z,125.73
2018-11-25T00:57:32.071Z,120.00
2018-11-25T01:00:00.574Z,125.53
2018-11-25T01:02:29.082Z,106.20
2018-11-25T01:04:57.573Z,123.23
2018-11-25T01:07:26.065Z,134.50
2018-11-25T01:09:54.533Z,137.83
2018-11-25T01:12:23.010Z,127.33
2018-11-25T01:14:51.522Z,125.00
2018-11-25T01:17:20.043Z,126.50
2018-11-25T01:19:48.570Z,123.37
2018-11-25T01:22:17.078Z,115.93
2018-11-25T01:24:45.594Z,117.17
2018-11-25T01:27:14.278Z,117.93
2018-11-25T01:29:42.774Z,110.87
2018-11-25T01:32:11.282Z,113.83
2018-11-25T01:34:39.788Z,115.63
2018-11-25T01:37:08.325Z,118.00
2018-11-25T01:39:36.826Z,126.73
2018-11-25T01:42:05.398Z,122.87
2018-11-25T01:44:33.933Z,120.33
2018-11-25T01:47:02.426Z,130.23
2018-11-25T01:49:30.945Z,121.00
2018-11-25T01:51:59.439Z,131.37
2018-11-25T01:54:27.948Z,117.77
2018-11-25T01:56:56.469Z,134.60
2018-11-25T01:59:24.982Z,130.00
2018-11-25T02:01:53.506Z,124.67
2018-11-25T02:04:22.031Z,112.73
2018-11-25T02:06:50.541Z,103.00
2018-11-25T02:09:19.053Z,125.00
2018-11-25T02:11:47.594Z,139.13
2018-11-25T02:14:16.125Z,119.70
2018-11-25T02:16:44.681Z,126.60
2018-11-25T02:19:13.197Z,119.40
2018-11-25T02:21:41.722Z,119.03
2018-11-25T02:24:10.226Z,114.60
2018-11-25T02:26:39.001Z,117.93
2018-11-25T02:29:08.273Z,111.83
2018-11-25T02:31:36.781Z,125.80
2018-11-25T02:34:05.411Z,110.10
2018-11-25T02:36:34.070Z,115.67
2018-11-25T02:39:02.618Z,105.53
2018-11-25T02:41:31.122Z,100.77
2018-11-25T02:43:59.613Z,111.40
2018-11-25T02:46:28.412Z,108.73
2018-11-25T02:48:56.918Z,110.37
2018-11-25T02:51:25.453Z,120.93
2018-11-25T02:53:54.116Z,112.00
2018-11-25T02:56:22.659Z,119.03
2018-11-25T02:58:51.145Z,109.83
2018-11-25T03:01:19.644Z,111.37
2018-11-25T03:03:48.145Z,116.10
2018-11-25T03:06:16.625Z,110.83
2018-11-25T03:08:45.129Z,112.13
2018-11-25T03:11:13.633Z,118.27
2018-11-25T03:13:42.109Z,105.83
2018-11-25T03:16:10.617Z,102.43
2018-11-25T03:18:39.137Z,115.13
2018-11-25T03:21:07.641Z,117.47
2018-11-25T03:23:36.164Z,106.70
2018-11-25T03:26:05.033Z,121.67
2018-11-25T03:28:33.564Z,123.00
2018-11-25T03:31:02.105Z,102.97
2018-11-25T03:33:30.612Z,112.07
2018-11-25T03:35:59.166Z,114.93
2018-11-25T03:38:27.664Z,112.10
2018-11-25T03:40:56.189Z,109.13
2018-11-25T03:43:24.697Z,105.37
2018-11-25T03:45:53.200Z,126.00
2018-11-25T03:48:21.780Z,160.33
2018-11-25T03:50:50.981Z,159.53
2018-11-25T03:53:19.496Z,230.07
2018-11-25T03:55:48.008Z,189.37
2018-11-25T03:58:16.543Z,180.77
2018-11-25T04:00:45.044Z,166.77
2018-11-25T04:03:13.564Z,135.17
2018-11-25T04:05:42.060Z,115.00
2018-11-25T04:08:10.575Z,116.57
2018-11-25T04:10:39.316Z,141.97
2018-11-25T04:13:07.847Z,135.60
2018-11-25T04:15:36.348Z,131.83
2018-11-25T04:18:04.904Z,118.87
2018-11-25T04:20:33.414Z,114.53
2018-11-25T04:23:01.915Z,117.23
2018-11-25T04:25:30.440Z,127.90
2018-11-25T04:27:58.964Z,130.90
2018-11-25T04:30:27.493Z,118.40
2018-11-25T04:32:55.983Z,112.63
2018-11-25T04:35:24.523Z,124.40
2018-11-25T04:37:53.049Z,122.27
2018-11-25T04:40:21.571Z,124.47
2018-11-25T04:42:50.091Z,117.93
2018-11-25T04:45:18.636Z,130.40
2018-11-25T04:47:47.551Z,113.30
2018-11-25T04:50:18.643Z,110.50
2018-11-25T04:52:47.179Z,117.80
2018-11-25T04:55:15.733Z,113.13
2018-11-25T04:57:51.111Z,117.03
2018-11-25T05:00:19.987Z,119.93
2018-11-25T05:02:49.085Z,108.43
2018-11-25T05:05:17.743Z,116.83
2018-11-25T05:07:46.254Z,117.13
2018-11-25T05:10:15.490Z,125.10
2018-11-25T05:12:44.024Z,122.63
2018-11-25T05:15:14.883Z,110.40
2018-11-25T05:17:43.435Z,141.60
2018-11-25T05:20:12.463Z,113.23
2018-11-25T05:22:40.996Z,112.73
2018-11-25T05:25:11.855Z,114.40
2018-11-25T05:27:40.386Z,114.87
2018-11-25T05:30:12.722Z,117.63
2018-11-25T05:32:41.253Z,126.43
2018-11-25T05:35:11.694Z,127.33
2018-11-25T05:37:40.217Z,129.17
2018-11-25T05:40:10.414Z,126.03
2018-11-25T05:42:38.959Z,118.03
2018-11-25T05:45:10.686Z,111.57
2018-11-25T05:47:39.322Z,124.80
2018-11-25T05:50:09.808Z,103.20
2018-11-25T05:52:38.342Z,114.73
2018-11-25T05:55:07.906Z,116.27
2018-11-25T05:57:36.486Z,116.80
2018-11-25T06:00:07.970Z,137.67
2018-11-25T06:02:36.530Z,139.57
2018-11-25T06:05:05.843Z,135.03
2018-11-25T06:07:34.338Z,117.00
2018-11-25T06:10:02.878Z,138.40
2018-11-25T06:12:31.386Z,116.03
2018-11-25T06:14:59.926Z,119.07
2018-11-25T06:17:28.405Z,111.13
2018-11-25T06:19:56.904Z,115.37
2018-11-25T06:22:25.417Z,109.97
2018-11-25T06:24:53.925Z,102.67
2018-11-25T06:27:22.429Z,113.07
2018-11-25T06:29:51.038Z,107.47
2018-11-25T06:32:19.557Z,123.83
2018-11-25T06:34:48.085Z,122.03
2018-11-25T06:37:16.585Z,108.47
2018-11-25T06:39:45.085Z,110.60
2018-11-25T06:42:13.597Z,107.43
2018-11-25T06:44:42.094Z,97.10
2018-11-25T06:47:10.650Z,108.87
2018-11-25T06:49:39.145Z,102.67
2018-11-25T06:52:07.644Z,109.40
2018-11-25T06:54:36.430Z,104.80
2018-11-25T06:57:04.985Z,121.03
2018-11-25T06:59:33.589Z,109.63
2018-11-25T07:02:02.104Z,117.63
2018-11-25T07:04:30.629Z,120.20
2018-11-25T07:06:59.133Z,126.80
2018-11-25T07:09:27.637Z,119.00
2018-11-25T07:11:56.153Z,122.10
2018-11-25T07:14:24.637Z,119.40
2018-11-25T07:16:53.155Z,117.80
2018-11-25T07:19:21.629Z,124.07
2018-11-25T07:21:50.100Z,122.67
2018-11-25T07:24:18.664Z,137.87
2018-11-25T07:26:47.192Z,140.33
2018-11-25T07:29:15.716Z,133.87
2018-11-25T07:31:44.200Z,115.93
2018-11-25T07:34:12.732Z,126.90
2018-11-25T07:36:41.208Z,131.53
2018-11-25T07:39:09.705Z,129.97
2018-11-25T07:41:38.196Z,128.77
2018-11-25T07:44:06.713Z,128.67
2018-11-25T07:46:35.232Z,114.63
2018-11-25T07:49:03.734Z,116.27
2018-11-25T07:51:32.269Z,116.63
2018-11-25T07:54:00.784Z,121.93
2018-11-25T07:56:29.312Z,109.17
2018-11-25T07:58:57.792Z,114.23
2018-11-25T08:01:26.296Z,113.30
2018-11-25T08:03:54.816Z,113.33
2018-11-25T08:06:23.344Z,104.13
2018-11-25T08:08:51.884Z,113.10
2018-11-25T08:11:20.375Z,113.57
2018-11-25T08:13:48.888Z,120.60
2018-11-25T08:16:17.384Z,115.27
2018-11-25T08:18:45.907Z,123.23
2018-11-25T08:21:14.455Z,114.23
2018-11-25T08:23:42.955Z,119.20
2018-11-25T08:26:11.487Z,123.50
2018-11-25T08:28:39.979Z,125.07
2018-11-25T08:31:08.528Z,123.17
2018-11-25T08:33:37.043Z,132.70
2018-11-25T08:36:06.471Z,129.90
2018-11-25T08:38:34.995Z,139.37
2018-11-25T08:41:03.531Z,138.30
2018-11-25T08:43:32.064Z,132.67
2018-11-25T08:46:00.583Z,145.37
2018-11-25T08:48:29.087Z,136.27
2018-11-25T08:50:57.599Z,129.40
2018-11-25T08:53:26.110Z,148.03
2018-11-25T08:55:54.658Z,147.50
2018-11-25T08:58:23.263Z,126.07
2018-11-25T09:00:51.887Z,143.77
2018-11-25T09:03:20.411Z,130.50
2018-11-25T09:05:48.919Z,139.37
2018-11-25T09:08:17.435Z,144.07
2018-11-25T09:10:45.935Z,148.43
2018-11-25T09:13:14.471Z,123.83
2018-11-25T09:15:42.963Z,149.53
2018-11-25T09:18:11.478Z,138.80
2018-11-25T09:20:40.040Z,132.87
2018-11-25T09:23:08.550Z,151.80
2018-11-25T09:25:37.058Z,129.40
2018-11-25T09:28:05.627Z,142.30
2018-11-25T09:30:34.438Z,144.67
2018-11-25T09:33:02.966Z,139.47
2018-11-25T09:35:31.479Z,159.33
2018-11-25T09:37:59.990Z,139.83
2018-11-25T09:40:28.638Z,132.93
2018-11-25T09:42:57.130Z,140.43
2018-11-25T09:45:25.613Z,128.23
2018-11-25T09:47:54.113Z,134.57
2018-11-25T09:50:23.426Z,129.27
2018-11-25T09:52:52.050Z,127.57
2018-11-25T09:55:21.695Z,128.50
2018-11-25T09:57:53.253Z,127.70
2018-11-25T10:00:22.856Z,132.67
2018-11-25T10:02:51.393Z,133.43
2018-11-25T10:05:19.929Z,127.40
2018-11-25T10:07:48.461Z,138.00
2018-11-25T10:10:21.845Z,122.40
2018-11-25T10:12:50.362Z,133.30
2018-11-25T10:15:19.906Z,137.20
2018-11-25T10:17:48.433Z,151.03
2018-11-25T10:20:19.042Z,130.03
2018-11-25T10:22:47.547Z,126.43
2018-11-25T10:25:16.669Z,134.27
2018-11-25T10:27:45.205Z,154.93
2018-11-25T10:30:16.552Z,129.97
2018-11-25T10:32:45.713Z,148.17
2018-11-25T10:35:14.207Z,143.53
2018-11-25T10:37:42.703Z,143.90
2018-11-25T10:40:13.301Z,138.47
2018-11-25T10:42:41.822Z,149.77
2018-11-25T10:45:12.394Z,153.77
2018-11-25T10:47:40.932Z,148.33
2018-11-25T10:50:13.501Z,158.83
2018-11-25T10:52:42.058Z,147.80
2018-11-25T10:55:11.590Z,150.70
2018-11-25T10:57:40.627Z,150.70
2018-11-25T11:00:18.956Z,149.87
2018-11-25T11:02:47.535Z,143.07
2018-11-25T11:05:21.417Z,138.57
2018-11-25T11:07:49.993Z,154.03
2018-11-25T11:10:18.526Z,136.40
2018-11-25T11:12:47.020Z,141.87
2018-11-25T11:15:15.620Z,142.80
2018-11-25T11:17:44.157Z,147.07
2018-11-25T11:20:12.740Z,143.43
2018-11-25T11:22:41.253Z,138.70
2018-11-25T11:25:09.916Z,147.00
2018-11-25T11:27:38.452Z,147.57
2018-11-25T11:30:09.610Z,134.57
2018-11-25T11:32:39.880Z,143.93
2018-11-25T11:35:08.564Z,126.03
2018-11-25T11:37:37.360Z,125.50
2018-11-25T11:40:10.098Z,124.23
2018-11-25T11:42:37.482Z,124.80
2018-11-25T11:45:08.308Z,133.13
2018-11-25T11:47:36.840Z,122.00
2018-11-25T11:50:07.919Z,117.17
2018-11-25T11:52:36.451Z,131.20
2018-11-25T11:55:06.180Z,141.60
2018-11-25T11:57:34.691Z,127.57
2018-11-25T12:00:03.244Z,124.50
2018-11-25T12:02:31.809Z,113.37
2018-11-25T12:05:00.316Z,118.10
2018-11-25T12:07:28.869Z,116.30
2018-11-25T12:09:57.368Z,119.13
2018-11-25T12:12:25.863Z,119.03
2018-11-25T12:14:54.360Z,112.93
2018-11-25T12:17:23.264Z,118.60
2018-11-25T12:19:51.780Z,119.00
2018-11-25T12:22:20.289Z,119.10
2018-11-25T12:24:49.091Z,119.97
2018-11-25T12:27:17.615Z,120.10
2018-11-25T12:29:46.161Z,115.70
2018-11-25T12:32:14.692Z,123.47
2018-11-25T12:34:43.211Z,120.90
2018-11-25T12:37:11.719Z,122.90
2018-11-25T12:39:40.224Z,119.13
2018-11-25T12:42:08.787Z,128.03
2018-11-25T12:44:37.335Z,113.97
2018-11-25T12:47:05.911Z,126.33
2018-11-25T12:49:34.481Z,130.57
2018-11-25T12:52:03.136Z,125.20
2018-11-25T12:54:31.663Z,125.40
2018-11-25T12:57:00.235Z,130.70
2018-11-25T12:59:28.758Z,131.13
2018-11-25T13:01:57.292Z,116.57
2018-11-25T13:04:27.869Z,128.43
2018-11-25T13:06:54.491Z,118.10
2018-11-25T13:09:23.022Z,127.90
2018-11-25T13:11:52.481Z,146.40
2018-11-25T13:14:20.167Z,133.60
2018-11-25T13:16:48.707Z,132.87
2018-11-25T13:19:17.279Z,139.03
2018-11-25T13:21:45.822Z,130.07
2018-11-25T13:24:14.422Z,122.47
2018-11-25T13:26:42.970Z,135.03
2018-11-25T13:29:11.474Z,130.50
2018-11-25T13:31:40.054Z,130.23
2018-11-25T13:34:08.658Z,140.00
2018-11-25T13:36:37.183Z,119.03
2018-11-25T13:39:08.933Z,134.80
2018-11-25T13:41:37.430Z,124.60
2018-11-25T13:44:06.174Z,117.73
2018-11-25T13:46:34.711Z,124.50
2018-11-25T13:49:03.222Z,121.20
2018-11-25T13:51:32.514Z,127.90
2018-11-25T13:54:01.052Z,138.87
2018-11-25T13:56:29.542Z,142.07
2018-11-25T13:58:58.037Z,140.60
2018-11-25T14:01:26.546Z,143.57
2018-11-25T14:03:55.054Z,140.63
2018-11-25T14:06:23.577Z,139.60
2018-11-25T14:08:53.709Z,145.73
2018-11-25T14:11:22.217Z,130.43
2018-11-25T14:13:50.749Z,130.33
2018-11-25T14:16:20.520Z,129.90
2018-11-25T14:18:49.041Z,124.73
2018-11-25T14:21:17.613Z,132.33
2018-11-25T14:23:46.134Z,137.03
2018-11-25T14:26:23.659Z,130.33
2018-11-25T14:28:52.944Z,131.60
2018-11-25T14:31:21.897Z,147.63
2018-11-25T14:33:50.397Z,131.63
2018-11-25T14:36:18.921Z,125.77
2018-11-25T14:38:47.450Z,150.03
2018-11-25T14:41:16.005Z,117.03
2018-11-25T14:43:44.509Z,222.93
2018-11-25T14:46:13.017Z,185.23
2018-11-25T14:48:41.549Z,122.17
2018-11-25T14:51:10.037Z,130.53
2018-11-25T14:53:38.556Z,146.23
2018-11-25T14:56:07.084Z,164.63
2018-11-25T14:58:35.589Z,157.80
2018-11-25T15:01:04.221Z,137.27
2018-11-25T15:03:32.721Z,150.63
2018-11-25T15:06:02.895Z,156.13
2018-11-25T15:08:32.152Z,156.53
2018-11-25T15:11:00.788Z,131.17
2018-11-25T15:13:29.301Z,136.30
2018-11-25T15:15:59.298Z,155.97
2018-11-25T15:18:27.852Z,140.53
2018-11-25T15:20:56.365Z,149.83
2018-11-25T15:23:24.876Z,135.63
2018-11-25T15:25:55.097Z,146.93
2018-11-25T15:28:23.616Z,140.40
2018-11-25T15:30:52.164Z,137.80
2018-11-25T15:33:20.681Z,138.33
2018-11-25T15:35:49.187Z,130.53
2018-11-25T15:38:17.702Z,120.80
2018-11-25T15:40:46.224Z,135.30
2018-11-25T15:46:46.324Z,136.63
2018-11-25T15:49:14.840Z,151.90
2018-11-25T15:51:43.351Z,153.43
2018-11-25T15:54:11.861Z,139.30
2018-11-25T15:56:40.384Z,133.77
2018-11-25T15:59:08.879Z,143.93
2018-11-25T16:01:37.420Z,140.17
2018-11-25T16:04:05.970Z,151.83
2018-11-25T16:06:36.076Z,144.70
2018-11-25T16:09:06.468Z,143.50
2018-11-25T16:11:34.979Z,142.87
2018-11-25T16:14:03.617Z,144.90
2018-11-25T16:16:32.172Z,121.97
2018-11-25T16:19:00.693Z,139.40
2018-11-25T16:21:29.236Z,134.80
2018-11-25T16:23:57.767Z,124.37
2018-11-25T16:26:29.299Z,139.17
2018-11-25T16:29:00.119Z,137.93
2018-11-25T16:31:28.643Z,128.27
2018-11-25T16:33:57.195Z,115.47
2018-11-25T16:36:25.727Z,148.03
2018-11-25T16:38:54.230Z,133.87
2018-11-25T16:41:22.739Z,154.23
2018-11-25T16:43:51.259Z,159.87
2018-11-25T16:46:19.814Z,150.07
2018-11-25T16:48:48.319Z,137.30
2018-11-25T16:51:16.839Z,149.53
2018-11-25T16:53:45.427Z,131.17
2018-11-25T16:56:13.943Z,149.97
2018-11-25T16:58:42.519Z,191.23
2018-11-25T17:01:11.074Z,192.60
2018-11-25T17:03:39.575Z,156.13
2018-11-25T17:06:08.739Z,164.60
2018-11-25T17:08:38.938Z,143.30
2018-11-25T17:11:08.071Z,139.13
2018-11-25T17:13:36.674Z,132.57
2018-11-25T17:16:05.826Z,148.77
2018-11-25T17:18:34.347Z,140.20
2018-11-25T17:21:02.858Z,135.57
2018-11-25T17:23:31.370Z,136.77
2018-11-25T17:25:59.875Z,138.37
2018-11-25T17:28:28.370Z,135.27
2018-11-25T17:30:56.922Z,147.03
2018-11-25T17:33:25.423Z,129.47
2018-11-25T17:35:53.951Z,118.80
2018-11-25T17:38:22.447Z,119.03
2018-11-25T17:40:51.069Z,112.87
2018-11-25T17:43:21.458Z,123.83
2018-11-25T17:45:49.977Z,156.43
2018-11-25T17:48:18.479Z,157.50
2018-11-25T17:50:47.023Z,172.10
2018-11-25T17:53:20.730Z,137.73
2018-11-25T17:55:44.159Z,132.57
2018-11-25T17:58:12.710Z,129.37
2018-11-25T18:00:51.215Z,122.40
2018-11-25T18:03:27.943Z,117.10
2018-11-25T18:05:56.523Z,111.27
2018-11-25T18:08:25.106Z,129.07
2018-11-25T18:10:53.850Z,132.13
2018-11-25T18:13:23.959Z,113.60
2018-11-25T18:15:53.688Z,114.63
2018-11-25T18:18:30.651Z,116.83
2018-11-25T18:21:01.983Z,114.40
2018-11-25T18:23:30.534Z,119.60
2018-11-25T18:25:59.107Z,114.43
2018-11-25T18:28:27.737Z,111.43
2018-11-25T18:30:56.380Z,101.50
2018-11-25T18:33:24.954Z,114.87
2018-11-25T18:35:53.558Z,104.67
2018-11-25T18:38:22.090Z,109.10
2018-11-25T18:40:50.915Z,102.33
2018-11-25T18:43:19.450Z,116.97
2018-11-25T18:45:48.030Z,106.03
2018-11-25T18:48:17.282Z,94.23
2018-11-25T18:50:45.834Z,95.17
2018-11-25T18:53:14.390Z,114.57
2018-11-25T18:55:41.821Z,104.43
2018-11-25T18:58:10.378Z,100.43
2018-11-25T19:00:41.950Z,98.03
2018-11-25T19:03:10.526Z,95.43
2018-11-25T19:05:39.053Z,90.33
2018-11-25T19:08:08.693Z,93.43
2018-11-25T19:10:37.962Z,96.03
2018-11-25T19:13:06.629Z,93.00
2018-11-25T19:15:35.201Z,92.80
2018-11-25T19:18:03.781Z,101.37
2018-11-25T19:20:32.379Z,90.90
2018-11-25T19:23:00.946Z,94.57
2018-11-25T19:25:29.502Z,89.40
2018-11-25T19:27:58.266Z,83.77
2018-11-25T19:30:27.234Z,89.93
2018-11-25T19:32:55.353Z,89.70
2018-11-25T19:35:23.993Z,90.83
2018-11-25T19:37:52.778Z,90.50
2018-11-25T19:40:26.145Z,91.40
2018-11-25T19:42:54.834Z,88.53
2018-11-25T19:45:25.398Z,87.97
2018-11-25T19:47:54.632Z,77.60
2018-11-25T19:50:30.566Z,92.67
2018-11-25T19:52:59.106Z,77.33
2018-11-25T19:55:27.653Z,88.83
2018-11-25T19:57:56.169Z,84.20
2018-11-25T20:00:25.359Z,80.53
2018-11-25T20:02:53.881Z,89.50
2018-11-25T20:05:22.801Z,85.67
2018-11-25T20:07:51.306Z,93.47
2018-11-25T20:10:20.962Z,93.20
2018-11-25T20:12:51.595Z,94.93
2018-11-25T20:15:20.523Z,93.63
2018-11-25T20:17:54.372Z,89.13
2018-11-25T20:20:19.894Z,95.50
2018-11-25T20:22:48.841Z,88.77
2018-11-25T20:25:18.070Z,90.23
2018-11-25T20:27:47.613Z,91.30
2018-11-25T20:30:17.108Z,78.40
2018-11-25T20:32:51.089Z,92.50
2018-11-25T20:35:19.614Z,77.63
2018-11-25T20:37:53.436Z,82.27
2018-11-25T20:40:22.029Z,87.73
2018-11-25T20:42:50.707Z,90.40
2018-11-25T20:45:25.624Z,84.37
2018-11-25T20:47:55.044Z,88.47
2018-11-25T20:50:23.545Z,88.97
2018-11-25T20:52:57.483Z,84.30
2018-11-25T20:55:26.005Z,90.13
2018-11-25T20:57:54.561Z,86.20
2018-11-25T21:00:24.516Z,83.93
2018-11-25T21:02:53.043Z,94.70
2018-11-25T21:05:21.568Z,95.83
2018-11-25T21:07:50.064Z,98.07
2018-11-25T21:10:19.607Z,96.37
2018-11-25T21:12:50.262Z,105.63
2018-11-25T21:15:18.799Z,99.33
2018-11-25T21:17:47.296Z,93.57
2018-11-25T21:20:19.845Z,104.90
2018-11-25T21:22:48.372Z,113.10
2018-11-25T21:25:19.012Z,111.20
2018-11-25T21:27:47.595Z,126.90
2018-11-25T21:30:21.244Z,108.03
2018-11-25T21:32:51.063Z,97.23
2018-11-25T21:35:19.924Z,103.33
2018-11-25T21:37:48.426Z,103.97
2018-11-25T21:40:21.740Z,105.83
2018-11-25T21:42:50.266Z,102.77
2018-11-25T21:45:19.566Z,95.10
2018-11-25T21:47:49.257Z,104.83
2018-11-25T21:50:20.930Z,102.77
2018-11-25T21:52:49.450Z,100.87
2018-11-25T21:55:18.409Z,98.70
2018-11-25T21:57:46.941Z,90.63
2018-11-25T22:00:17.470Z,94.43
2018-11-25T22:02:45.964Z,93.27
2018-11-25T22:05:14.920Z,99.27
2018-11-25T22:07:43.534Z,90.73
2018-11-25T22:10:15.038Z,84.30
2018-11-25T22:12:44.045Z,82.57
2018-11-25T22:15:14.427Z,84.87
2018-11-25T22:17:42.948Z,70.70
2018-11-25T22:20:13.397Z,72.30
2018-11-25T22:22:41.963Z,73.90
2018-11-25T22:25:12.601Z,86.70
2018-11-25T22:27:41.122Z,80.27
2018-11-25T22:30:11.790Z,80.47
2018-11-25T22:32:40.345Z,88.20
2018-11-25T22:35:12.901Z,75.90
2018-11-25T22:37:42.055Z,82.90
2018-11-25T22:40:12.141Z,83.37
2018-11-25T22:42:41.405Z,74.63
2018-11-25T22:45:12.973Z,73.27
2018-11-25T22:47:41.606Z,78.53
2018-11-25T22:50:12.709Z,68.67
2018-11-25T22:52:41.249Z,67.40
2018-11-25T22:55:22.933Z,71.77
2018-11-25T22:57:51.709Z,70.97
2018-11-25T23:00:38.309Z,75.47
2018-11-25T23:03:07.437Z,70.33
2018-11-25T23:05:47.976Z,71.83
2018-11-25T23:08:16.517Z,70.40
2018-11-25T23:10:45.092Z,74.80
2018-11-25T23:13:13.616Z,67.77
2018-11-25T23:15:42.152Z,73.37
2018-11-25T23:18:10.949Z,68.23
2018-11-25T23:20:39.467Z,65.30
2018-11-25T23:23:08.421Z,77.53
2018-11-25T23:25:37.091Z,72.07
2018-11-25T23:28:05.623Z,74.23
2018-11-25T23:30:34.092Z,71.83
2018-11-25T23:33:02.780Z,74.53
2018-11-25T23:35:32.593Z,75.07
2018-11-25T23:38:01.149Z,69.93
2018-11-25T23:40:29.647Z,74.57
2018-11-25T23:42:58.170Z,64.87
2018-11-25T23:45:26.700Z,76.17
2018-11-25T23:47:55.216Z,73.77
2018-11-25T23:50:23.705Z,79.20
2018-11-25T23:52:52.200Z,70.13
2018-11-25T23:55:20.712Z,79.57
2018-11-25T23:57:49.239Z,68.10
